Time;durP1;ratioP1;P1;durP2;ratioP2;P2;SDS_P1;SDS_P2;PMS_P1;PMS_P2;Temp;Humidity;BMP_temperature;BMP_pressure;BME280_temperature;BME280_humidity;BME280_pressure;Samples;Min_cycle;Max_cycle;Signal;HPM_P1;HPM_P2
2023/01/01 00:01:39;;;;;;;11.33;6.07;;;;;;;13.01;87.05;99674.25;5021203;23;22851;-69
2023/01/01 00:04:08;;;;;;;10.10;6.10;;;;;;;13.05;86.89;99675.56;5047051;23;20205;-66
2023/01/01 00:06:35;;;;;;;10.47;5.50;;;;;;;12.98;86.95;99680.78;5028788;23;20206;-66
2023/01/01 00:11:47;;;;;;;13.30;4.90;;;;;;;13.03;87.20;99678.38;5067103;23;20261;-69
2023/01/01 00:14:14;;;;;;;11.80;4.70;;;;;;;12.97;87.06;99672.94;5046715;23;21290;-66
2023/01/01 00:16:41;;;;;;;10.33;4.57;;;;;;;12.95;86.96;99681.16;5050682;23;23500;-69
2023/01/01 00:19:07;;;;;;;8.20;4.00;;;;;;;12.97;87.25;99670.25;5046322;23;20390;-69
2023/01/01 00:21:34;;;;;;;9.00;4.50;;;;;;;12.93;87.37;99671.66;5044472;23;20205;-69
2023/01/01 00:24:01;;;;;;;9.27;4.17;;;;;;;12.94;87.11;99682.13;5069088;23;20619;-67
2023/01/01 00:26:28;;;;;;;12.10;4.37;;;;;;;12.93;87.12;99679.66;5087800;23;20582;-68
2023/01/01 00:29:01;;;;;;;9.87;4.00;;;;;;;12.94;86.92;99674.13;5043428;23;20694;-69
2023/01/01 00:31:27;;;;;;;10.23;4.53;;;;;;;12.90;86.97;99678.19;5052460;23;21526;-69
2023/01/01 00:33:54;;;;;;;7.87;3.93;;;;;;;12.84;87.41;99678.88;5050960;23;20267;-69
2023/01/01 00:36:23;;;;;;;8.60;4.23;;;;;;;12.90;87.24;99688.88;5054661;23;20264;-69
2023/01/01 00:38:50;;;;;;;9.97;4.30;;;;;;;12.83;87.19;99682.53;5048249;23;20205;-70
2023/01/01 00:41:17;;;;;;;8.07;4.20;;;;;;;12.75;87.48;99691.44;5043788;23;20204;-70
2023/01/01 00:43:45;;;;;;;9.07;4.40;;;;;;;12.83;87.45;99688.75;5048750;23;20205;-70
2023/01/01 00:46:12;;;;;;;8.67;4.37;;;;;;;12.80;87.43;99693.59;5040679;23;22878;-67
2023/01/01 00:48:39;;;;;;;8.03;4.60;;;;;;;12.81;87.45;99689.94;5039092;23;20283;-68
2023/01/01 00:51:05;;;;;;;7.57;4.23;;;;;;;12.84;87.20;99690.38;5042866;23;20201;-69
2023/01/01 00:53:32;;;;;;;9.23;4.43;;;;;;;12.83;87.15;99699.41;5050488;23;20247;-69
2023/01/01 00:55:59;;;;;;;7.97;4.30;;;;;;;12.82;86.80;99694.25;5055670;23;20204;-69
2023/01/01 00:58:25;;;;;;;8.67;4.27;;;;;;;12.81;87.06;99684.59;5043484;23;26232;-69
2023/01/01 01:00:53;;;;;;;10.37;4.23;;;;;;;12.84;86.60;99689.56;5020363;23;20246;-68
2023/01/01 01:03:29;;;;;;;6.43;3.90;;;;;;;12.82;86.60;99680.91;5021673;23;21063;-71
2023/01/01 01:06:03;;;;;;;12.23;4.40;;;;;;;12.83;86.47;99693.22;5016881;23;20202;-67
2023/01/01 01:08:32;;;;;;;8.60;4.23;;;;;;;12.84;86.85;99701.06;5011963;23;22840;-69
2023/01/01 01:11:12;;;;;;;7.97;4.30;;;;;;;12.78;86.48;99685.78;5017316;23;20628;-68
2023/01/01 01:13:40;;;;;;;9.03;4.23;;;;;;;12.76;86.73;99689.59;5015681;23;20379;-68
2023/01/01 01:16:26;;;;;;;7.93;4.00;;;;;;;12.86;85.97;99693.72;5015253;23;21703;-67
2023/01/01 01:18:55;;;;;;;9.03;4.00;;;;;;;12.85;85.82;99701.91;5022215;23;20225;-68
2023/01/01 01:21:22;;;;;;;9.53;3.93;;;;;;;12.86;85.76;99690.22;5000837;23;21229;-71
2023/01/01 01:23:50;;;;;;;9.03;4.10;;;;;;;12.87;86.16;99691.88;4995008;23;20307;-69
2023/01/01 01:26:22;;;;;;;9.70;4.60;;;;;;;12.92;85.62;99708.19;5017826;23;20582;-68
2023/01/01 01:28:49;;;;;;;7.87;3.80;;;;;;;12.93;85.13;99699.19;5013483;23;20209;-69
2023/01/01 01:31:20;;;;;;;11.13;4.20;;;;;;;13.00;84.65;99701.97;5013876;23;20206;-68
2023/01/01 01:33:48;;;;;;;9.60;4.13;;;;;;;12.98;84.74;99702.13;5021552;23;20287;-69
2023/01/01 01:36:15;;;;;;;8.50;4.07;;;;;;;12.98;84.40;99693.31;5008185;23;21994;-67
2023/01/01 01:38:42;;;;;;;7.87;3.47;;;;;;;13.09;83.75;99687.53;5012767;23;22031;-68
2023/01/01 01:41:11;;;;;;;7.73;4.00;;;;;;;13.14;83.14;99692.34;5013088;23;21217;-69
2023/01/01 01:44:24;;;;;;;7.90;3.93;;;;;;;13.18;82.63;99701.63;5010846;23;21712;-69
2023/01/01 01:46:51;;;;;;;9.47;4.20;;;;;;;13.16;82.56;99703.66;5011748;23;21629;-69
2023/01/01 01:49:25;;;;;;;9.27;3.70;;;;;;;13.11;82.97;99690.88;5026321;23;20208;-68
2023/01/01 01:51:52;;;;;;;8.27;3.77;;;;;;;13.10;82.88;99695.34;5008156;23;21450;-70
2023/01/01 01:54:22;;;;;;;8.27;3.93;;;;;;;13.14;82.49;99705.72;5014570;23;20470;-68
2023/01/01 01:57:03;;;;;;;8.07;3.90;;;;;;;13.14;82.61;99700.38;4995476;23;20310;-69
2023/01/01 01:59:33;;;;;;;7.90;3.87;;;;;;;13.09;82.12;99699.06;5024990;23;20204;-70
2023/01/01 02:02:00;;;;;;;7.77;3.40;;;;;;;13.13;82.10;99696.84;5049910;23;21749;-70
2023/01/01 02:04:27;;;;;;;8.53;4.10;;;;;;;13.06;82.25;99704.75;5049501;23;22239;-69
2023/01/01 02:06:54;;;;;;;7.70;3.90;;;;;;;13.07;82.01;99685.03;5020209;23;20209;-71
2023/01/01 02:09:21;;;;;;;8.97;4.10;;;;;;;13.22;81.47;99681.56;5039645;23;25138;-68
2023/01/01 02:11:47;;;;;;;9.67;4.00;;;;;;;13.16;81.34;99687.63;5052701;23;20687;-70
2023/01/01 02:14:15;;;;;;;12.27;4.90;;;;;;;13.22;81.27;99694.94;5041035;23;20387;-70
2023/01/01 02:17:31;;;;;;;7.73;4.20;;;;;;;13.18;81.16;99693.63;5032724;23;20209;-69
2023/01/01 02:20:11;;;;;;;8.23;3.83;;;;;;;13.23;80.83;99699.28;5044986;23;20221;-69
2023/01/01 02:23:01;;;;;;;9.60;4.33;;;;;;;13.05;81.53;99702.25;5054072;23;20867;-69
2023/01/01 02:26:02;;;;;;;9.40;4.60;;;;;;;13.06;81.20;99699.41;5024179;23;20303;-68
2023/01/01 02:28:50;;;;;;;9.90;4.67;;;;;;;13.01;81.66;99698.28;5011592;23;20209;-71
2023/01/01 02:31:22;;;;;;;10.20;4.57;;;;;;;13.05;81.29;99697.75;5049496;23;20416;-71
2023/01/01 02:33:51;;;;;;;11.07;5.50;;;;;;;13.08;80.76;99692.03;5041141;23;20319;-70
2023/01/01 02:36:19;;;;;;;9.77;4.50;;;;;;;13.04;81.21;99695.25;5048918;23;20212;-69
2023/01/01 02:38:48;;;;;;;9.33;4.40;;;;;;;13.02;80.95;99687.44;5068685;23;20205;-70
2023/01/01 02:41:21;;;;;;;9.63;4.10;;;;;;;13.10;80.55;99683.84;5030748;23;20622;-70
2023/01/01 02:43:47;;;;;;;7.30;4.27;;;;;;;13.08;80.24;99665.31;5030383;23;20434;-69
2023/01/01 02:46:14;;;;;;;10.83;3.90;;;;;;;13.17;80.25;99678.63;5047300;23;20904;-68
2023/01/01 02:48:48;;;;;;;9.53;4.33;;;;;;;13.16;79.59;99680.47;5021824;23;21148;-69
2023/01/01 02:51:38;;;;;;;8.53;3.67;;;;;;;13.25;79.07;99690.06;5052057;23;20203;-68
2023/01/01 02:54:16;;;;;;;7.67;3.97;;;;;;;13.24;79.14;99679.56;5039003;23;20215;-69
2023/01/01 02:56:49;;;;;;;8.60;4.10;;;;;;;13.18;79.07;99674.94;5050723;23;20300;-69
2023/01/01 03:02:11;;;;;;;8.40;4.13;;;;;;;13.22;78.58;99670.88;5037460;23;20215;-68
2023/01/01 03:04:41;;;;;;;6.50;3.67;;;;;;;13.27;78.26;99673.84;5018739;23;20213;-69
2023/01/01 03:07:26;;;;;;;8.40;3.63;;;;;;;13.32;77.77;99681.34;5035092;23;20429;-69
2023/01/01 03:10:04;;;;;;;8.13;3.50;;;;;;;13.37;77.51;99674.47;5062796;23;20213;-68
2023/01/01 03:12:39;;;;;;;6.53;3.53;;;;;;;13.38;77.13;99684.13;5045909;23;20525;-70
2023/01/01 03:15:24;;;;;;;11.40;3.70;;;;;;;13.45;76.97;99661.00;5035421;23;20212;-69
2023/01/01 03:18:38;;;;;;;7.60;3.47;;;;;;;13.45;77.17;99665.53;5024154;23;20201;-69
2023/01/01 03:21:06;;;;;;;8.80;3.57;;;;;;;13.47;75.97;99661.66;5018304;23;22512;-72
2023/01/01 03:23:45;;;;;;;7.03;3.20;;;;;;;13.47;75.71;99653.63;5019777;23;20216;-68
2023/01/01 03:26:16;;;;;;;8.27;3.23;;;;;;;13.51;75.27;99664.81;5039248;23;20206;-69
2023/01/01 03:28:47;;;;;;;6.60;3.20;;;;;;;13.53;75.29;99681.47;5040067;23;20205;-70
2023/01/01 03:31:17;;;;;;;6.33;3.33;;;;;;;13.47;75.41;99696.41;5035621;23;21247;-68
2023/01/01 03:33:47;;;;;;;7.10;3.37;;;;;;;13.31;75.83;99685.88;5023526;23;23596;-68
2023/01/01 03:36:21;;;;;;;7.47;3.47;;;;;;;13.27;76.19;99700.56;5051815;23;20240;-69
2023/01/01 03:38:51;;;;;;;7.80;3.50;;;;;;;13.24;76.24;99706.28;5036251;23;20202;-69
2023/01/01 03:41:37;;;;;;;6.67;3.37;;;;;;;13.26;76.26;99704.25;5029935;23;20266;-70
2023/01/01 03:44:17;;;;;;;6.93;3.77;;;;;;;13.36;75.72;99718.22;5037105;23;20212;-70
2023/01/01 03:46:44;;;;;;;7.23;3.53;;;;;;;13.41;75.18;99712.34;5040341;23;20449;-68
2023/01/01 03:49:11;;;;;;;7.27;3.17;;;;;;;13.40;75.38;99727.53;5052486;23;21709;-69
2023/01/01 03:51:55;;;;;;;6.43;3.50;;;;;;;13.44;75.14;99723.50;5055350;23;21342;-68
2023/01/01 03:54:34;;;;;;;9.13;3.57;;;;;;;13.32;75.22;99718.75;5048565;23;21722;-72
2023/01/01 03:57:21;;;;;;;8.57;3.83;;;;;;;13.31;75.19;99704.56;5045914;23;20266;-69
2023/01/01 03:59:58;;;;;;;6.57;3.33;;;;;;;13.20;75.85;99729.84;5032678;23;20607;-69
2023/01/01 04:02:29;;;;;;;6.87;3.43;;;;;;;13.13;76.35;99709.38;5054037;23;20690;-68
2023/01/01 04:04:58;;;;;;;7.80;3.50;;;;;;;13.13;76.05;99717.38;5031791;23;20956;-70
2023/01/01 04:07:25;;;;;;;10.23;3.57;;;;;;;13.02;76.51;99718.66;5043567;23;20206;-69
2023/01/01 04:09:53;;;;;;;7.93;3.13;;;;;;;12.96;77.11;99714.00;5024871;23;20322;-69
2023/01/01 04:12:20;;;;;;;6.47;3.50;;;;;;;13.01;76.45;99715.13;5030602;23;20462;-70
2023/01/01 04:14:46;;;;;;;8.33;3.27;;;;;;;12.96;76.90;99724.69;5047579;23;20209;-69
2023/01/01 04:17:13;;;;;;;10.03;3.50;;;;;;;13.00;76.58;99721.50;5036637;23;20576;-68
2023/01/01 04:19:40;;;;;;;5.53;3.00;;;;;;;13.02;76.44;99726.66;5046384;23;20743;-69
2023/01/01 04:22:07;;;;;;;9.00;3.43;;;;;;;13.04;75.99;99729.97;5031658;23;22022;-69
2023/01/01 04:24:34;;;;;;;8.17;3.10;;;;;;;12.97;76.17;99740.56;5056926;23;22395;-67
2023/01/01 04:27:00;;;;;;;8.47;3.83;;;;;;;13.02;75.58;99727.50;5074417;23;20204;-68
2023/01/01 04:29:27;;;;;;;6.50;3.80;;;;;;;12.96;76.19;99741.53;5093134;23;21644;-68
2023/01/01 04:31:53;;;;;;;6.50;3.33;;;;;;;12.97;76.23;99732.53;5072324;23;21231;-68
2023/01/01 04:34:20;;;;;;;6.27;3.43;;;;;;;13.07;75.77;99743.81;5043684;23;20217;-69
2023/01/01 04:36:47;;;;;;;6.90;3.50;;;;;;;13.06;75.38;99742.16;5043425;23;20308;-68
2023/01/01 04:39:13;;;;;;;6.73;3.37;;;;;;;13.12;75.05;99737.09;5064384;23;20272;-67
2023/01/01 04:41:40;;;;;;;9.87;3.90;;;;;;;13.02;75.43;99740.03;5051401;23;20248;-69
2023/01/01 04:44:07;;;;;;;7.20;3.40;;;;;;;13.07;75.34;99748.31;5075116;23;20204;-68
2023/01/01 04:46:33;;;;;;;7.93;3.60;;;;;;;13.02;75.39;99740.84;5062685;23;20205;-69
2023/01/01 04:49:00;;;;;;;7.07;3.47;;;;;;;13.05;75.19;99743.16;5056839;23;20286;-69
2023/01/01 04:51:27;;;;;;;6.93;3.57;;;;;;;13.00;75.20;99740.19;5036862;23;20595;-69
2023/01/01 04:53:53;;;;;;;9.43;3.50;;;;;;;13.01;75.28;99733.00;5044195;23;20212;-70
2023/01/01 04:56:21;;;;;;;7.47;3.30;;;;;;;13.04;74.83;99751.31;5049317;23;20209;-68
2023/01/01 04:58:48;;;;;;;5.70;3.20;;;;;;;12.96;74.93;99740.72;5038785;23;22290;-69
2023/01/01 05:01:20;;;;;;;6.90;3.27;;;;;;;12.96;75.10;99741.53;5036085;23;20315;-69
2023/01/01 05:03:48;;;;;;;5.53;3.13;;;;;;;12.98;75.11;99752.88;5060932;23;20208;-70
2023/01/01 05:06:15;;;;;;;4.80;2.90;;;;;;;13.08;74.63;99761.47;5043923;23;22849;-68
2023/01/01 05:08:44;;;;;;;8.63;3.50;;;;;;;13.03;74.47;99758.53;5031579;23;27160;-69
2023/01/01 05:11:19;;;;;;;6.73;2.87;;;;;;;13.06;74.10;99752.84;5050638;23;20248;-69
2023/01/01 05:13:48;;;;;;;12.53;3.50;;;;;;;12.98;74.28;99750.22;5048306;23;22473;-68
2023/01/01 05:16:18;;;;;;;9.53;3.60;;;;;;;13.07;74.27;99743.81;5052098;23;22485;-68
2023/01/01 05:18:46;;;;;;;7.30;3.20;;;;;;;13.09;73.90;99751.66;5052239;23;20208;-70
2023/01/01 05:21:14;;;;;;;7.63;3.07;;;;;;;13.19;73.04;99746.88;5058083;23;22047;-69
2023/01/01 05:23:41;;;;;;;7.73;3.20;;;;;;;13.21;73.05;99749.41;5037513;23;20201;-70
2023/01/01 05:26:10;;;;;;;6.13;2.87;;;;;;;13.19;73.40;99759.44;5057717;23;20249;-69
2023/01/01 05:28:37;;;;;;;7.50;3.33;;;;;;;13.06;73.32;99757.31;5061121;23;20204;-69
2023/01/01 05:31:05;;;;;;;7.30;3.37;;;;;;;13.14;73.13;99754.63;5046189;23;20348;-70
2023/01/01 05:33:32;;;;;;;5.17;2.77;;;;;;;13.13;72.95;99757.44;5053369;23;20228;-70
2023/01/01 05:35:59;;;;;;;6.27;3.07;;;;;;;13.00;73.82;99768.75;5044513;23;20213;-70
2023/01/01 05:38:26;;;;;;;6.53;3.30;;;;;;;12.94;73.62;99770.25;5043744;23;23321;-69
2023/01/01 05:40:53;;;;;;;7.50;3.50;;;;;;;12.93;73.83;99773.13;5066261;23;20287;-70
2023/01/01 05:43:19;;;;;;;6.30;2.93;;;;;;;13.04;73.11;99778.91;5064796;23;20209;-69
2023/01/01 05:45:46;;;;;;;7.30;3.07;;;;;;;13.01;73.38;99781.91;5064436;23;20264;-69
2023/01/01 05:48:12;;;;;;;8.73;3.10;;;;;;;13.16;72.37;99778.47;5039814;23;20235;-69
2023/01/01 05:50:39;;;;;;;6.70;2.90;;;;;;;13.03;73.13;99781.72;5067003;23;25163;-70
2023/01/01 05:53:06;;;;;;;8.17;3.40;;;;;;;13.07;72.58;99775.03;5041047;23;23238;-69
2023/01/01 05:55:32;;;;;;;8.30;3.07;;;;;;;13.00;73.14;99787.44;5048509;23;20220;-69
2023/01/01 05:57:59;;;;;;;7.80;3.10;;;;;;;12.94;73.71;99780.13;5049103;23;21224;-69
2023/01/01 06:00:27;;;;;;;7.37;3.00;;;;;;;12.96;73.32;99796.81;5054136;23;20216;-69
2023/01/01 06:02:53;;;;;;;7.50;2.97;;;;;;;12.97;72.74;99796.63;5075868;23;21771;-68
2023/01/01 06:05:20;;;;;;;6.70;3.20;;;;;;;12.94;73.11;99798.81;5044923;23;20201;-68
2023/01/01 06:07:47;;;;;;;5.93;3.00;;;;;;;12.83;73.47;99805.38;5057046;23;20205;-68
2023/01/01 06:10:14;;;;;;;6.87;3.13;;;;;;;12.85;73.54;99806.88;5043173;23;20269;-69
2023/01/01 06:12:41;;;;;;;5.33;3.30;;;;;;;12.77;73.79;99816.78;5046289;23;21845;-68
2023/01/01 06:15:07;;;;;;;6.77;3.30;;;;;;;12.67;74.39;99806.31;5037709;23;22053;-69
2023/01/01 06:17:34;;;;;;;8.07;3.23;;;;;;;12.76;74.05;99804.41;5041648;23;20641;-70
2023/01/01 06:20:00;;;;;;;7.90;3.10;;;;;;;12.83;73.61;99810.72;5043999;23;20728;-68
2023/01/01 06:22:27;;;;;;;8.90;3.20;;;;;;;12.91;73.09;99813.34;5074199;23;20427;-66
2023/01/01 06:24:53;;;;;;;7.53;3.13;;;;;;;12.91;72.49;99812.53;5043985;23;21726;-70
2023/01/01 06:27:20;;;;;;;5.03;2.90;;;;;;;12.89;72.96;99820.69;5046380;23;21656;-69
2023/01/01 06:29:46;;;;;;;6.03;2.93;;;;;;;12.96;72.59;99816.31;5026510;23;20273;-68
2023/01/01 06:32:13;;;;;;;6.90;3.17;;;;;;;12.93;72.64;99821.19;5059228;23;20561;-70
2023/01/01 06:34:39;;;;;;;7.37;2.90;;;;;;;12.90;72.38;99833.06;5039025;23;21776;-68
2023/01/01 06:37:06;;;;;;;7.10;2.90;;;;;;;12.87;72.53;99828.06;5044769;23;20257;-69
2023/01/01 06:39:32;;;;;;;7.90;3.03;;;;;;;12.90;71.87;99833.06;5056489;23;23477;-68
2023/01/01 06:41:59;;;;;;;6.30;2.90;;;;;;;12.94;72.16;99828.19;5048611;23;20211;-69
2023/01/01 06:44:25;;;;;;;5.80;2.73;;;;;;;12.91;71.88;99824.03;5040340;23;20336;-69
2023/01/01 06:46:52;;;;;;;6.47;3.17;;;;;;;12.87;71.96;99825.38;5054322;23;20220;-70
2023/01/01 06:49:19;;;;;;;7.00;3.33;;;;;;;12.90;71.61;99833.06;5051688;23;20263;-68
2023/01/01 06:51:45;;;;;;;6.27;3.07;;;;;;;12.89;71.64;99824.19;5039039;23;26388;-70
2023/01/01 06:54:12;;;;;;;8.83;3.17;;;;;;;13.02;70.91;99826.31;5031532;23;20215;-68
2023/01/01 06:56:38;;;;;;;5.87;2.90;;;;;;;12.92;71.49;99833.69;5053151;23;20546;-70
2023/01/01 06:59:05;;;;;;;9.27;3.23;;;;;;;12.96;71.56;99835.03;5045700;23;20201;-69
2023/01/01 07:01:34;;;;;;;7.67;2.93;;;;;;;12.94;71.45;99839.69;5027696;23;21747;-67
2023/01/01 07:04:07;;;;;;;7.33;3.30;;;;;;;12.95;71.12;99849.41;5049721;23;21213;-68
2023/01/01 07:06:34;;;;;;;5.90;2.60;;;;;;;12.89;71.67;99844.72;5060307;23;21379;-69
2023/01/01 07:09:01;;;;;;;7.77;2.97;;;;;;;12.89;71.39;99852.75;5106592;23;21183;-66
2023/01/01 07:11:28;;;;;;;5.40;2.83;;;;;;;12.89;71.50;99853.56;5118958;23;20210;-66
2023/01/01 07:13:55;;;;;;;6.23;2.97;;;;;;;12.89;71.62;99850.06;5070364;23;21814;-68
2023/01/01 07:16:22;;;;;;;6.83;2.87;;;;;;;12.94;71.35;99850.38;5036239;23;20768;-68
2023/01/01 07:18:49;;;;;;;6.80;3.00;;;;;;;12.96;70.73;99853.72;5105828;23;21318;-68
2023/01/01 07:21:53;;;;;;;8.07;3.40;;;;;;;12.96;70.73;99864.41;5051367;23;20463;-69
2023/01/01 07:24:20;;;;;;;7.87;2.80;;;;;;;12.93;70.87;99864.75;5057636;23;20204;-66
2023/01/01 07:26:47;;;;;;;7.23;2.93;;;;;;;13.04;70.88;99871.53;5075702;23;20786;-69
2023/01/01 07:29:14;;;;;;;6.30;2.53;;;;;;;12.98;70.54;99874.91;5148617;23;20207;-68
2023/01/01 07:31:42;;;;;;;6.10;2.57;;;;;;;12.98;71.26;99878.41;5098913;23;22294;-67
2023/01/01 07:34:12;;;;;;;11.43;2.53;;;;;;;12.84;71.56;99879.16;5045818;23;20207;-66
2023/01/01 07:36:40;;;;;;;6.20;3.03;;;;;;;12.70;71.98;99891.38;5075245;23;20212;-66
2023/01/01 07:39:07;;;;;;;6.43;3.27;;;;;;;12.78;71.72;99887.84;5043493;23;20204;-68
2023/01/01 07:41:33;;;;;;;7.00;3.37;;;;;;;12.73;71.79;99884.84;5036137;23;20211;-67
2023/01/01 07:44:00;;;;;;;7.10;3.20;;;;;;;12.72;71.81;99893.88;5073295;23;20213;-68
2023/01/01 07:46:27;;;;;;;7.23;2.67;;;;;;;12.74;72.22;99891.88;5077209;23;23872;-67
2023/01/01 07:48:55;;;;;;;7.70;3.20;;;;;;;12.75;71.89;99896.19;5075208;23;22299;-68
2023/01/01 07:51:22;;;;;;;6.90;3.00;;;;;;;12.77;71.69;99894.19;5088822;23;20201;-70
2023/01/01 07:53:48;;;;;;;7.50;2.80;;;;;;;12.77;72.05;99902.22;5071327;23;20204;-71
2023/01/01 07:56:15;;;;;;;8.83;2.70;;;;;;;12.81;71.69;99908.88;5102070;23;20267;-68
2023/01/01 07:58:42;;;;;;;8.57;2.77;;;;;;;12.90;70.85;99913.19;5089022;23;20272;-70
2023/01/01 08:01:10;;;;;;;7.30;3.30;;;;;;;12.98;70.72;99921.16;5061359;23;21733;-67
2023/01/01 08:03:37;;;;;;;8.27;3.00;;;;;;;13.00;70.59;99919.13;5058707;23;20259;-68
2023/01/01 08:06:14;;;;;;;7.60;2.93;;;;;;;12.99;70.67;99917.44;5070955;23;20254;-69
2023/01/01 08:08:40;;;;;;;13.93;3.00;;;;;;;13.00;70.59;99924.47;5080942;23;20206;-67
2023/01/01 08:11:07;;;;;;;6.47;3.20;;;;;;;13.00;70.61;99926.31;5052588;23;22319;-68
2023/01/01 08:13:34;;;;;;;7.60;3.17;;;;;;;13.06;70.88;99931.81;5042341;23;20204;-70
2023/01/01 08:16:01;;;;;;;6.27;2.97;;;;;;;13.04;70.38;99936.50;5071884;23;20208;-71
2023/01/01 08:18:27;;;;;;;9.97;3.07;;;;;;;13.02;70.32;99938.50;5063519;23;20200;-69
2023/01/01 08:20:56;;;;;;;6.17;2.70;;;;;;;12.99;71.30;99933.47;5053169;23;20395;-69
2023/01/01 08:23:23;;;;;;;9.37;3.20;;;;;;;13.01;71.21;99944.81;5070131;23;20240;-68
2023/01/01 08:25:49;;;;;;;7.10;3.07;;;;;;;13.08;70.60;99948.47;5062722;23;25273;-68
2023/01/01 08:28:16;;;;;;;9.27;2.80;;;;;;;13.15;70.77;99953.13;5026969;23;20325;-72
2023/01/01 08:30:43;;;;;;;9.17;3.37;;;;;;;13.18;70.59;99948.28;5056852;23;20220;-67
2023/01/01 08:33:09;;;;;;;8.37;3.13;;;;;;;13.23;70.25;99950.44;5078049;23;20291;-70
2023/01/01 08:35:39;;;;;;;13.53;3.37;;;;;;;13.23;70.42;99943.25;5040798;23;20256;-69
2023/01/01 08:38:05;;;;;;;7.23;3.17;;;;;;;13.22;70.78;99948.75;5094987;23;20212;-70
2023/01/01 08:40:32;;;;;;;8.27;3.10;;;;;;;13.24;70.71;99952.09;5072970;23;20378;-70
2023/01/01 08:42:59;;;;;;;9.77;2.90;;;;;;;13.34;70.34;99962.59;5072189;23;20646;-68
2023/01/01 08:45:28;;;;;;;7.73;3.03;;;;;;;13.40;69.91;99961.91;5142055;23;20209;-70
2023/01/01 08:47:55;;;;;;;8.63;2.80;;;;;;;13.49;69.62;99960.84;5129061;23;20578;-73
2023/01/01 08:50:21;;;;;;;9.10;3.20;;;;;;;13.61;69.29;99966.63;5094416;23;20210;-72
2023/01/01 08:52:48;;;;;;;8.53;2.70;;;;;;;13.77;68.26;99969.22;5059573;23;21280;-69
2023/01/01 08:55:14;;;;;;;14.80;2.90;;;;;;;13.93;67.49;99974.44;5124012;23;20684;-73
2023/01/01 08:57:41;;;;;;;9.30;2.80;;;;;;;14.25;66.21;99971.69;5084533;23;20356;-67
2023/01/01 09:00:08;;;;;;;11.07;3.03;;;;;;;14.89;63.72;99985.50;5121647;23;21449;-72
2023/01/01 09:02:35;;;;;;;9.07;2.87;;;;;;;15.87;59.75;99993.31;5126534;23;20726;-73
2023/01/01 09:05:02;;;;;;;7.37;3.00;;;;;;;16.69;56.01;100003.56;5102022;23;20261;-69
2023/01/01 09:07:29;;;;;;;11.60;3.07;;;;;;;17.55;52.97;100014.00;5099148;23;21080;-68
2023/01/01 09:09:56;;;;;;;9.93;3.20;;;;;;;18.62;48.29;100015.06;5143163;23;22029;-69
2023/01/01 09:12:22;;;;;;;15.57;3.40;;;;;;;19.31;44.89;100024.50;5126655;23;20575;-69
2023/01/01 09:14:49;;;;;;;8.03;2.77;;;;;;;19.27;45.02;100020.59;5074543;23;20252;-72
2023/01/01 09:17:16;;;;;;;8.60;2.90;;;;;;;19.50;44.22;100016.56;5069850;23;21991;-72
2023/01/01 09:19:44;;;;;;;14.80;3.43;;;;;;;19.87;43.17;100022.25;5110685;23;22571;-72
2023/01/01 09:22:11;;;;;;;10.00;2.83;;;;;;;20.10;42.21;100037.91;5081550;23;20678;-71
2023/01/01 09:24:38;;;;;;;11.87;2.90;;;;;;;19.49;42.63;100013.03;5076340;23;22721;-75
2023/01/01 09:27:05;;;;;;;13.50;2.90;;;;;;;18.96;43.88;100019.44;5070394;23;20235;-73
2023/01/01 09:29:31;;;;;;;8.13;3.20;;;;;;;18.31;45.93;100023.78;5098384;23;20848;-67
2023/01/01 09:31:58;;;;;;;8.47;2.60;;;;;;;17.28;49.08;100007.69;5095068;23;22377;-70
2023/01/01 09:34:25;;;;;;;10.03;3.00;;;;;;;16.40;52.59;100004.56;5078743;23;22038;-68
2023/01/01 09:36:51;;;;;;;8.70;2.80;;;;;;;16.16;54.20;99990.53;5048737;23;24739;-69
2023/01/01 09:39:22;;;;;;;7.83;3.00;;;;;;;15.88;55.28;99993.16;5120046;23;20211;-72
2023/01/01 09:42:04;;;;;;;11.53;3.00;;;;;;;15.74;55.87;99988.66;5058056;23;20228;-69
2023/01/01 09:44:45;;;;;;;13.23;2.80;;;;;;;15.87;55.83;99977.22;5076408;23;20205;-67
2023/01/01 09:47:24;;;;;;;8.87;2.73;;;;;;;15.81;55.72;99984.19;5071859;23;20208;-69
2023/01/01 09:49:51;;;;;;;12.77;2.70;;;;;;;15.76;55.95;99984.78;5077237;23;20204;-70
2023/01/01 09:52:19;;;;;;;13.47;2.47;;;;;;;15.70;56.24;99987.34;5113279;23;21696;-71
2023/01/01 09:55:15;;;;;;;19.03;2.87;;;;;;;15.81;56.19;99994.94;5058726;23;20438;-69
2023/01/01 09:57:41;;;;;;;12.90;2.77;;;;;;;15.78;55.95;99989.94;5041648;23;20240;-68
2023/01/01 10:00:16;;;;;;;14.03;2.57;;;;;;;15.95;56.18;99991.38;5136732;23;23552;-68
2023/01/01 10:03:01;;;;;;;11.10;2.90;;;;;;;16.60;53.49;99992.16;5105186;23;20395;-68
2023/01/01 10:06:00;;;;;;;13.50;3.10;;;;;;;16.58;53.06;99985.31;5073310;23;20268;-69
2023/01/01 10:08:33;;;;;;;11.33;3.03;;;;;;;16.30;54.52;99988.81;5111427;23;20815;-70
2023/01/01 10:11:38;;;;;;;12.37;3.27;;;;;;;16.17;55.02;99983.31;5098511;23;20226;-71
2023/01/01 10:14:19;;;;;;;11.40;3.03;;;;;;;16.37;54.34;99987.00;5069226;23;21303;-69
2023/01/01 10:16:48;;;;;;;12.63;3.43;;;;;;;16.91;52.05;99979.38;5072578;23;20279;-68
2023/01/01 10:19:19;;;;;;;13.90;3.37;;;;;;;17.29;50.39;99999.41;5031574;23;20301;-69
2023/01/01 10:21:48;;;;;;;16.77;2.53;;;;;;;17.32;49.91;99991.97;5066850;23;20214;-69
2023/01/01 10:24:44;;;;;;;9.23;2.50;;;;;;;17.17;50.17;99987.56;5061597;23;20242;-68
2023/01/01 10:27:27;;;;;;;11.07;2.57;;;;;;;17.10;50.35;99984.00;5075268;23;20205;-73
2023/01/01 10:29:54;;;;;;;10.13;2.90;;;;;;;17.20;50.06;99976.41;5099686;23;20215;-69
2023/01/01 10:32:30;;;;;;;15.53;3.13;;;;;;;17.79;47.63;99990.28;5079321;23;20231;-71
2023/01/01 10:34:57;;;;;;;17.47;2.87;;;;;;;18.31;45.16;99984.19;5122683;23;22847;-70
2023/01/01 10:37:26;;;;;;;6.90;2.40;;;;;;;18.97;42.98;99986.03;5075119;23;20209;-68
2023/01/01 10:39:53;;;;;;;15.87;2.67;;;;;;;20.56;39.11;99999.75;5080457;23;25008;-70
2023/01/01 10:42:20;;;;;;;11.93;3.20;;;;;;;21.63;35.84;100010.31;5111245;23;20212;-75
2023/01/01 10:44:50;;;;;;;10.30;3.07;;;;;;;21.29;35.55;99996.31;5137244;23;20405;-69
2023/01/01 10:47:28;;;;;;;11.30;2.70;;;;;;;19.96;38.26;99986.66;5091762;23;23579;-70
2023/01/01 10:49:56;;;;;;;14.43;3.47;;;;;;;19.10;40.57;99978.94;5061522;23;20214;-70
2023/01/01 10:52:34;;;;;;;12.73;2.90;;;;;;;19.69;39.32;99985.16;5080209;23;20569;-71
2023/01/01 10:55:01;;;;;;;11.00;2.87;;;;;;;20.35;37.77;99986.59;5159676;23;20199;-69
2023/01/01 10:57:34;;;;;;;8.77;3.00;;;;;;;21.27;36.20;99984.88;5134502;23;21266;-70
2023/01/01 11:00:15;;;;;;;12.83;3.00;;;;;;;22.37;34.33;100004.69;5097753;23;20213;-71
2023/01/01 11:02:42;;;;;;;12.63;3.37;;;;;;;22.51;33.23;99994.44;5132261;23;20215;-72
2023/01/01 11:05:20;;;;;;;17.47;2.90;;;;;;;21.80;34.13;99988.81;5135990;23;20278;-70
2023/01/01 11:07:48;;;;;;;9.80;2.97;;;;;;;21.75;34.01;99990.56;5157594;23;20613;-69
2023/01/01 11:10:20;;;;;;;15.23;3.40;;;;;;;21.23;34.51;99994.50;5067699;23;23603;-69
2023/01/01 11:12:49;;;;;;;17.03;3.00;;;;;;;19.88;36.80;99972.56;5080019;23;21698;-69
2023/01/01 11:15:37;;;;;;;8.07;3.10;;;;;;;19.17;38.78;99968.94;5109861;23;20211;-74
2023/01/01 11:18:15;;;;;;;18.80;3.20;;;;;;;18.54;41.08;99959.53;5056643;23;20702;-71
2023/01/01 11:20:42;;;;;;;21.67;3.90;;;;;;;18.37;41.46;99955.59;5072376;23;20781;-72
2023/01/01 11:23:29;;;;;;;11.07;3.50;;;;;;;18.48;41.40;99954.13;5090630;23;20298;-74
2023/01/01 11:26:16;;;;;;;16.57;3.43;;;;;;;18.32;41.94;99950.00;5089546;23;22555;-76
2023/01/01 11:28:58;;;;;;;16.47;3.40;;;;;;;18.29;41.94;99953.13;5070802;23;23749;-69
2023/01/01 11:31:29;;;;;;;11.90;3.40;;;;;;;18.15;42.36;99949.59;5085712;23;20636;-74
2023/01/01 11:33:56;;;;;;;17.27;3.67;;;;;;;18.02;43.01;99953.09;5068844;23;20204;-74
2023/01/01 11:36:24;;;;;;;12.60;3.10;;;;;;;17.90;43.23;99952.03;5097689;23;20220;-71
2023/01/01 11:39:21;;;;;;;14.20;3.50;;;;;;;17.92;43.40;99950.78;5144716;23;20209;-69
2023/01/01 11:41:50;;;;;;;11.57;2.67;;;;;;;17.82;43.16;99960.31;5092799;23;20214;-73
2023/01/01 11:44:34;;;;;;;14.47;3.50;;;;;;;17.81;43.36;99947.88;5051950;23;20856;-70
2023/01/01 11:47:01;;;;;;;16.40;3.97;;;;;;;17.87;43.03;99939.00;5102100;23;23347;-70
2023/01/01 11:49:29;;;;;;;13.63;3.37;;;;;;;17.96;42.65;99950.38;5067099;23;20340;-73
2023/01/01 11:51:58;;;;;;;15.63;3.37;;;;;;;17.91;43.10;99951.00;5065540;23;20201;-71
2023/01/01 11:54:34;;;;;;;12.67;2.87;;;;;;;17.61;44.14;99937.06;5049851;23;20276;-71